Dati Storici

Data ora Umidita' aria (%) Temperatura aria (°C) Rad globale (W/m²) Gonioanemometro (°) Tacoanemometro (m/s) Pioggia (mm)
26-06-2020 00:50 80 % 19.137 3.682 1.099 0 0
26-06-2020 00:40 80.4 % 19.093 29.065 0.734 0 0
26-06-2020 00:30 80.6 % 19.151 28.645 0.499 0 0
26-06-2020 00:20 80 % 19.184 34.512 2.142 0 0
26-06-2020 00:10 79.4 % 19.225 36.493 2.838 0 0
26-06-2020 00:00 79.1 % 19.34 20.529 2.161 0 0
25-06-2020 23:50 79.1 % 19.363 20.705 1.688 0 0
25-06-2020 23:40 78.9 % 19.384 74.759 0.585 0 0
25-06-2020 23:30 78.6 % 19.357 16.393 2.976 0 0
25-06-2020 23:20 78.7 % 19.453 13.489 1.539 0 0
25-06-2020 23:10 78.3 % 19.516 15.635 0.454 0 0
25-06-2020 23:00 77.6 % 19.719 58.833 0.123 0 0
25-06-2020 22:50 76.9 % 19.752 343.798 1.972 0 0
25-06-2020 22:40 76.3 % 19.847 39.981 1.29 0 0
25-06-2020 22:30 75.9 % 19.899 13.607 1.519 0 0
25-06-2020 22:20 75 % 20.026 43.722 2.289 0 0
25-06-2020 22:10 73.8 % 20.171 10.31 2.443 0 0
25-06-2020 22:00 73 % 20.357 20.262 0.361 0 0
25-06-2020 21:50 72.3 % 20.412 24.692 2.353 0 0
25-06-2020 21:40 72.2 % 20.515 12.565 2.852 0 0

I dati sono presentati in modo automatico a scopo informativo. In seguito a verifica i dati possono subire modifiche o essere invalidati e non riportati negli archivi definitivi.